Time;durP1;ratioP1;P1;durP2;ratioP2;P2;SDS_P1;SDS_P2;PMS_P1;PMS_P2;Temp;Humidity;BMP_temperature;BMP_pressure;BME280_temperature;BME280_humidity;BME280_pressure;Samples;Min_cycle;Max_cycle;Signal;HPM_P1;HPM_P2
2022/04/17 00:00:53;;;;;;;9.05;4.50;;;;;;;11.03;36.66;102952.50;4957035;28;112871;-78
2022/04/17 00:03:24;;;;;;;8.90;4.78;;;;;;;11.03;36.57;102962.22;4954278;28;123738;-78
2022/04/17 00:05:51;;;;;;;8.10;4.88;;;;;;;11.02;36.43;102961.38;4954002;28;124340;-77
2022/04/17 00:08:18;;;;;;;8.32;4.45;;;;;;;10.98;36.41;102954.34;4956517;28;114137;-77
2022/04/17 00:10:46;;;;;;;10.25;4.80;;;;;;;10.95;36.62;102959.69;4976414;28;113740;-77
2022/04/17 00:13:14;;;;;;;11.07;5.50;;;;;;;10.91;36.25;102953.53;4954109;28;124329;-78
2022/04/17 00:15:42;;;;;;;8.85;4.80;;;;;;;10.87;36.59;102956.25;4967663;28;124663;-77
2022/04/17 00:18:09;;;;;;;8.48;4.55;;;;;;;10.83;36.50;102959.81;4985216;28;112925;-77
2022/04/17 00:20:38;;;;;;;10.38;4.95;;;;;;;10.78;36.70;102956.38;4965197;28;113872;-77
2022/04/17 00:23:05;;;;;;;9.77;5.35;;;;;;;10.70;36.65;102952.03;4954769;28;124702;-78
2022/04/17 00:25:33;;;;;;;9.43;5.13;;;;;;;10.62;36.58;102956.50;4965375;28;124223;-78
2022/04/17 00:28:00;;;;;;;11.05;5.55;;;;;;;10.54;36.51;102953.09;4964089;28;114787;-78
2022/04/17 00:30:27;;;;;;;9.68;5.22;;;;;;;10.46;36.67;102952.31;4960903;28;114973;-78
2022/04/17 00:32:54;;;;;;;8.77;5.28;;;;;;;10.41;36.93;102957.63;4963084;28;123967;-78
2022/04/17 00:35:21;;;;;;;9.75;5.38;;;;;;;10.35;36.66;102946.22;4962057;28;124644;-78
2022/04/17 00:37:48;;;;;;;7.90;5.20;;;;;;;10.29;37.14;102953.31;4957064;28;113242;-78
2022/04/17 00:40:15;;;;;;;9.35;5.82;;;;;;;10.24;36.85;102949.81;4952375;28;113203;-79
2022/04/17 00:42:42;;;;;;;9.75;5.50;;;;;;;10.21;36.94;102955.16;4955116;28;123721;-77
2022/04/17 00:45:10;;;;;;;8.35;5.05;;;;;;;10.18;36.82;102949.00;4952356;28;122707;-77
2022/04/17 00:47:37;;;;;;;10.82;6.15;;;;;;;10.13;37.14;102951.69;4962461;28;114125;-78
2022/04/17 00:50:07;;;;;;;9.82;5.97;;;;;;;10.10;37.00;102951.75;4954883;28;112991;-77
2022/04/17 00:52:35;;;;;;;10.43;5.85;;;;;;;10.07;37.44;102952.63;4958548;28;124199;-78
2022/04/17 00:55:04;;;;;;;8.32;5.20;;;;;;;10.07;37.18;102946.47;4954057;28;123049;-78
2022/04/17 00:57:32;;;;;;;11.57;6.10;;;;;;;10.04;37.39;102946.47;4968873;28;113535;-78
2022/04/17 00:59:59;;;;;;;11.27;6.38;;;;;;;10.01;37.23;102942.09;4967582;28;116018;-77
2022/04/17 01:02:26;;;;;;;9.90;5.72;;;;;;;9.99;37.10;102943.00;4962585;28;124129;-78
2022/04/17 01:04:53;;;;;;;9.27;6.05;;;;;;;9.97;37.36;102950.09;4952429;28;124993;-78
2022/04/17 01:07:23;;;;;;;12.95;6.60;;;;;;;9.93;37.32;102943.94;4957412;28;115005;-78
2022/04/17 01:09:53;;;;;;;13.30;6.28;;;;;;;9.91;37.19;102936.00;4970649;28;114295;-78
2022/04/17 01:12:20;;;;;;;11.75;5.55;;;;;;;9.88;37.02;102940.44;4965121;28;125255;-78
2022/04/17 01:14:48;;;;;;;13.07;6.82;;;;;;;9.84;37.08;102944.88;4953263;28;124183;-77
2022/04/17 01:17:15;;;;;;;10.02;6.25;;;;;;;9.82;37.15;102946.66;4954234;28;114980;-78
2022/04/17 01:19:42;;;;;;;10.52;6.32;;;;;;;9.79;37.42;102941.38;4970446;28;114621;-78
2022/04/17 01:22:11;;;;;;;9.43;6.03;;;;;;;9.76;37.39;102946.72;4954970;28;124652;-78
2022/04/17 01:27:25;;;;;;;10.73;6.45;;;;;;;9.72;37.63;102945.00;4956912;28;114291;-78
2022/04/17 01:29:53;;;;;;;10.07;6.22;;;;;;;9.69;37.50;102945.00;4974184;28;113850;-78
2022/04/17 01:32:21;;;;;;;10.98;5.95;;;;;;;9.65;37.23;102940.63;4959750;28;123004;-77
2022/04/17 01:34:49;;;;;;;11.13;6.32;;;;;;;9.63;37.52;102939.78;4954161;28;123891;-78
2022/04/17 01:37:17;;;;;;;11.88;6.50;;;;;;;9.60;37.72;102945.06;4956522;28;114312;-78
2022/04/17 01:39:46;;;;;;;10.27;6.70;;;;;;;9.59;37.61;102938.00;4967956;28;112770;-78
2022/04/17 01:42:13;;;;;;;11.20;6.60;;;;;;;9.59;37.80;102932.72;4949483;28;124048;-78
2022/04/17 01:44:41;;;;;;;11.02;6.32;;;;;;;9.60;37.39;102937.13;4948576;28;123709;-78
2022/04/17 01:47:08;;;;;;;11.60;6.30;;;;;;;9.60;37.29;102934.50;4956917;28;113964;-79
2022/04/17 01:49:36;;;;;;;11.40;6.00;;;;;;;9.58;37.67;102936.28;4955741;28;114370;-78
2022/04/17 01:52:03;;;;;;;11.98;6.50;;;;;;;9.57;37.26;102934.50;4951562;28;125749;-78
2022/04/17 01:54:32;;;;;;;10.95;6.30;;;;;;;9.54;37.64;102936.28;4971208;28;123676;-78
2022/04/17 01:56:59;;;;;;;11.00;6.45;;;;;;;9.51;37.45;102935.41;4958539;28;114639;-77
2022/04/17 01:59:27;;;;;;;10.38;5.75;;;;;;;9.48;37.59;102940.75;4954661;28;114104;-78
2022/04/17 02:01:54;;;;;;;14.82;6.57;;;;;;;9.43;37.87;102938.13;4951623;28;124375;-78
2022/04/17 02:04:23;;;;;;;11.15;6.60;;;;;;;9.37;37.85;102932.88;4931828;28;123381;-78
2022/04/17 02:06:50;;;;;;;13.20;6.15;;;;;;;9.32;37.76;102939.97;4958084;28;114703;-78
2022/04/17 02:09:17;;;;;;;9.75;6.40;;;;;;;9.26;37.79;102942.66;4953009;28;113920;-78
2022/04/17 02:11:45;;;;;;;11.98;6.70;;;;;;;9.20;37.95;102945.34;4951022;28;124109;-78
2022/04/17 02:14:12;;;;;;;8.82;5.45;;;;;;;9.11;37.76;102941.81;4949832;28;123298;-78
2022/04/17 02:16:40;;;;;;;10.32;6.45;;;;;;;9.09;37.99;102942.72;4950827;28;113191;-78
2022/04/17 02:19:08;;;;;;;12.30;6.68;;;;;;;9.02;38.12;102941.88;4952310;28;114215;-78
2022/04/17 02:21:35;;;;;;;10.43;6.50;;;;;;;8.95;38.40;102934.88;4951134;28;124046;-78
2022/04/17 02:24:04;;;;;;;10.68;6.15;;;;;;;8.90;38.27;102941.94;4953048;28;123605;-78
2022/04/17 02:26:32;;;;;;;10.57;6.10;;;;;;;8.83;38.23;102932.28;4948515;28;114330;-78
2022/04/17 02:29:00;;;;;;;12.50;6.28;;;;;;;8.77;38.48;102931.41;4977489;28;114166;-78
2022/04/17 02:31:28;;;;;;;9.73;6.28;;;;;;;8.73;38.42;102924.38;4967773;28;123503;-78
2022/04/17 02:33:56;;;;;;;11.85;6.93;;;;;;;8.71;38.46;102931.44;4954249;28;123805;-78
2022/04/17 02:36:23;;;;;;;14.02;6.90;;;;;;;8.70;38.52;102934.97;4935310;28;114215;-78
2022/04/17 02:38:50;;;;;;;11.18;6.53;;;;;;;8.65;38.79;102936.75;4958296;28;113131;-78
2022/04/17 02:41:17;;;;;;;10.00;6.78;;;;;;;8.59;38.81;102934.13;4951240;28;123591;-78
2022/04/17 02:43:44;;;;;;;11.43;6.63;;;;;;;8.52;38.71;102932.38;4955823;28;123071;-78
2022/04/17 02:46:12;;;;;;;12.15;6.60;;;;;;;8.44;38.63;102931.50;4955507;28;113769;-77
2022/04/17 02:48:39;;;;;;;11.35;6.55;;;;;;;8.36;39.12;102927.13;4972549;28;113358;-78
2022/04/17 02:51:07;;;;;;;13.70;7.22;;;;;;;8.32;39.01;102922.69;4953415;28;124051;-77
2022/04/17 02:53:34;;;;;;;10.13;6.35;;;;;;;8.29;39.37;102922.72;4954133;28;124258;-77
2022/04/17 02:56:02;;;;;;;13.73;7.00;;;;;;;8.24;39.35;102918.34;4949348;28;114404;-78
2022/04/17 02:58:29;;;;;;;12.32;6.90;;;;;;;8.20;39.26;102920.09;4953200;28;115167;-78
2022/04/17 03:06:28;;;;;;;13.13;6.78;;;;;;;8.08;39.48;102909.56;4972540;28;113755;-78
2022/04/17 03:08:55;;;;;;;10.77;6.20;;;;;;;8.07;39.75;102915.72;4959932;28;113619;-78
2022/04/17 03:11:22;;;;;;;11.68;6.75;;;;;;;8.06;39.52;102919.22;4968502;28;122809;-78
2022/04/17 03:13:49;;;;;;;12.88;6.78;;;;;;;8.06;39.60;102919.22;4969001;28;121785;-78
2022/04/17 03:16:16;;;;;;;11.40;6.82;;;;;;;8.05;39.63;102914.84;4956279;28;114209;-78
2022/04/17 03:18:43;;;;;;;11.23;6.60;;;;;;;8.04;39.47;102916.59;4968640;28;113938;-78
2022/04/17 03:21:11;;;;;;;12.15;6.78;;;;;;;8.02;39.39;102913.06;4948216;28;123782;-78
2022/04/17 03:23:38;;;;;;;11.75;6.55;;;;;;;8.01;39.81;102910.47;4953993;28;124465;-78
2022/04/17 03:26:05;;;;;;;10.13;6.43;;;;;;;7.98;39.63;102912.19;4971281;28;113801;-78
2022/04/17 03:28:32;;;;;;;11.68;6.93;;;;;;;7.95;39.76;102912.22;4956347;28;113988;-78
2022/04/17 03:30:59;;;;;;;11.43;6.05;;;;;;;7.95;39.76;102917.50;4951952;28;124693;-78
2022/04/17 03:33:28;;;;;;;12.60;6.80;;;;;;;7.93;39.79;102908.72;4959406;28;97365;-77
2022/04/17 03:35:56;;;;;;;14.60;6.50;;;;;;;7.94;39.59;102910.44;4937625;28;113494;-77
2022/04/17 03:38:24;;;;;;;11.15;6.30;;;;;;;7.94;39.90;102910.44;4953769;28;114475;-77
2022/04/17 03:40:51;;;;;;;11.63;6.40;;;;;;;7.93;39.90;102903.44;4952222;28;123898;-77
2022/04/17 03:43:18;;;;;;;11.88;6.35;;;;;;;7.93;40.10;102906.06;4958058;28;124691;-77
2022/04/17 03:45:47;;;;;;;8.63;5.68;;;;;;;7.93;39.67;102903.44;4972672;28;115785;-77
2022/04/17 03:48:18;;;;;;;10.85;6.35;;;;;;;7.93;39.68;102898.16;4953763;28;115278;-77
2022/04/17 03:50:45;;;;;;;11.30;5.80;;;;;;;7.93;39.80;102895.50;4933652;28;123118;-77
2022/04/17 03:53:12;;;;;;;12.02;6.22;;;;;;;7.92;39.88;102896.38;4954929;28;123572;-77
2022/04/17 03:55:39;;;;;;;10.07;6.10;;;;;;;7.90;39.90;102887.59;4957410;28;114948;-77
2022/04/17 03:58:06;;;;;;;11.50;6.18;;;;;;;7.89;39.60;102891.13;4975936;28;113908;-77
2022/04/17 04:00:33;;;;;;;11.02;5.50;;;;;;;7.88;39.83;102894.63;4969186;28;123618;-77
2022/04/17 04:03:03;;;;;;;9.00;6.05;;;;;;;7.84;39.70;102894.66;4978185;28;121959;-77
2022/04/17 04:05:33;;;;;;;10.82;6.07;;;;;;;7.81;39.74;102892.88;4952154;28;113287;-77
2022/04/17 04:08:01;;;;;;;10.40;5.82;;;;;;;7.79;39.82;102894.63;4954326;28;113662;-77
2022/04/17 04:10:28;;;;;;;8.30;5.47;;;;;;;7.80;40.41;102891.13;4968310;28;123140;-78
2022/04/17 04:12:56;;;;;;;10.38;5.85;;;;;;;7.82;40.35;102894.63;4962404;28;123540;-76
2022/04/17 04:15:24;;;;;;;10.48;5.72;;;;;;;7.82;40.27;102889.38;4966850;28;114716;-76
2022/04/17 04:17:51;;;;;;;10.00;5.68;;;;;;;7.82;40.02;102884.09;4963845;28;113762;-77
2022/04/17 04:20:18;;;;;;;10.93;5.65;;;;;;;7.83;40.13;102891.09;4957866;28;124083;-77
2022/04/17 04:22:45;;;;;;;12.93;6.07;;;;;;;7.83;40.09;102885.81;4941933;28;123376;-77
2022/04/17 04:25:12;;;;;;;9.07;5.75;;;;;;;7.83;40.19;102880.56;4951282;28;114467;-77
2022/04/17 04:30:24;;;;;;;10.90;5.85;;;;;;;7.81;40.35;102877.03;4953694;28;123903;-77
2022/04/17 04:32:56;;;;;;;11.52;6.45;;;;;;;7.78;40.19;102871.78;4955466;28;124065;-77
2022/04/17 04:35:26;;;;;;;10.80;5.60;;;;;;;7.75;40.38;102869.13;4938399;28;115555;-77
2022/04/17 04:37:53;;;;;;;11.55;6.75;;;;;;;7.72;40.16;102871.75;4968364;28;114264;-77
2022/04/17 04:40:21;;;;;;;11.25;6.38;;;;;;;7.71;40.16;102870.03;4954092;28;123871;-77
2022/04/17 04:42:48;;;;;;;9.55;6.20;;;;;;;7.69;40.35;102877.06;4958955;28;122952;-76
2022/04/17 04:48:01;;;;;;;;;;;;;;;7.61;40.31;102869.16;4960760;28;113290;-77
2022/04/17 04:50:28;;;;;;;10.02;6.30;;;;;;;7.58;40.02;102863.88;4958777;28;124951;-77
2022/04/17 04:52:56;;;;;;;10.55;6.15;;;;;;;7.55;40.27;102864.75;4966192;28;122727;-78
2022/04/17 04:55:23;;;;;;;12.00;6.00;;;;;;;7.54;40.44;102863.00;4962766;28;114037;-77
2022/04/17 04:57:50;;;;;;;9.63;6.00;;;;;;;7.51;40.37;102862.97;4975865;28;113808;-77
2022/04/17 05:00:17;;;;;;;8.50;5.68;;;;;;;7.50;40.68;102861.25;4954678;28;124651;-77
2022/04/17 05:02:44;;;;;;;11.23;5.82;;;;;;;7.51;40.69;102868.25;4955610;28;123649;-77
2022/04/17 05:05:11;;;;;;;10.30;5.43;;;;;;;7.52;40.84;102859.47;4955143;28;112920;-77
2022/04/17 05:07:39;;;;;;;9.13;5.50;;;;;;;7.54;40.65;102863.00;4960484;28;114706;-77
2022/04/17 05:10:07;;;;;;;9.75;5.85;;;;;;;7.54;40.68;102857.72;4957860;28;123620;-78
2022/04/17 05:12:36;;;;;;;11.38;6.15;;;;;;;7.56;40.91;102855.94;4957826;28;124245;-77
2022/04/17 05:15:05;;;;;;;9.43;6.00;;;;;;;7.58;40.74;102864.75;4963986;28;113754;-78
2022/04/17 05:17:34;;;;;;;10.02;5.78;;;;;;;7.60;40.89;102862.97;4956555;28;114634;-77
2022/04/17 05:20:02;;;;;;;8.57;5.65;;;;;;;7.64;41.19;102857.72;4975492;28;123266;-77
2022/04/17 05:22:31;;;;;;;10.32;5.60;;;;;;;7.67;41.17;102863.00;4956274;28;123734;-78
2022/04/17 05:24:59;;;;;;;10.40;6.00;;;;;;;7.69;41.04;102861.25;4961555;28;114435;-78
2022/04/17 05:27:27;;;;;;;10.70;5.57;;;;;;;7.72;40.91;102866.50;4960870;28;115280;-78
2022/04/17 05:29:55;;;;;;;12.13;6.75;;;;;;;7.73;41.23;102858.59;4962471;28;123801;-77
2022/04/17 05:32:22;;;;;;;9.15;4.90;;;;;;;7.78;40.98;102861.25;4952481;28;123549;-78
2022/04/17 05:34:50;;;;;;;11.68;5.43;;;;;;;7.81;40.96;102853.31;4968259;28;113491;-78
2022/04/17 05:37:17;;;;;;;9.65;5.47;;;;;;;7.84;41.30;102863.00;4973834;28;113801;-78
2022/04/17 05:39:44;;;;;;;11.48;5.72;;;;;;;7.89;40.98;102862.09;4950725;28;124062;-78
2022/04/17 05:42:12;;;;;;;9.63;5.55;;;;;;;7.92;41.38;102864.72;4966782;28;123900;-77
2022/04/17 05:44:46;;;;;;;12.82;5.60;;;;;;;7.97;41.47;102857.69;4968487;28;114371;-77
2022/04/17 05:47:13;;;;;;;8.98;5.18;;;;;;;8.03;41.33;102855.91;4961740;28;113888;-77
2022/04/17 05:49:41;;;;;;;9.60;5.40;;;;;;;8.08;41.68;102859.41;4966165;28;124476;-78
2022/04/17 05:52:08;;;;;;;11.50;5.40;;;;;;;8.12;41.67;102858.53;4961268;28;124662;-77
2022/04/17 05:54:35;;;;;;;8.88;5.25;;;;;;;8.19;41.57;102868.19;4961235;28;114106;-79
2022/04/17 05:57:02;;;;;;;8.65;5.60;;;;;;;8.27;41.67;102871.69;4952256;28;113832;-78
2022/04/17 05:59:30;;;;;;;8.93;4.97;;;;;;;8.35;41.77;102869.91;4961330;28;124030;-78
2022/04/17 06:01:57;;;;;;;8.75;5.30;;;;;;;8.44;41.78;102878.69;4960330;28;123041;-78
2022/04/17 06:04:25;;;;;;;6.43;4.63;;;;;;;8.51;41.72;102875.16;4974837;28;113424;-78
2022/04/17 06:06:52;;;;;;;7.07;4.68;;;;;;;8.58;41.61;102871.63;4956513;28;112028;-78
2022/04/17 06:09:19;;;;;;;8.43;5.10;;;;;;;8.67;41.68;102876.88;4958613;28;123704;-78
2022/04/17 06:11:47;;;;;;;7.40;4.72;;;;;;;8.74;42.06;102873.31;4959185;28;124272;-78
2022/04/17 06:14:14;;;;;;;7.75;4.40;;;;;;;8.84;41.92;102873.28;4975768;28;113967;-78
2022/04/17 06:16:41;;;;;;;7.13;4.80;;;;;;;8.92;42.11;102871.47;4970704;28;114924;-78
2022/04/17 06:19:11;;;;;;;7.32;4.30;;;;;;;9.01;41.89;102871.41;4960057;28;123725;-78
2022/04/17 06:21:40;;;;;;;7.70;4.60;;;;;;;9.12;42.09;102874.00;4946497;28;123769;-78
2022/04/17 06:24:07;;;;;;;7.15;4.50;;;;;;;9.21;42.18;102873.03;4948856;28;114094;-78
2022/04/17 06:26:34;;;;;;;5.80;4.10;;;;;;;9.30;42.22;102878.28;4962691;28;114349;-78
2022/04/17 06:29:05;;;;;;;6.30;4.32;;;;;;;9.41;42.33;102870.28;4957145;28;124548;-78
2022/04/17 06:31:33;;;;;;;6.72;4.30;;;;;;;9.53;41.85;102871.06;4967673;28;124140;-78
2022/04/17 06:34:01;;;;;;;7.10;4.57;;;;;;;9.68;41.93;102874.44;4969615;28;114204;-78
2022/04/17 06:36:28;;;;;;;6.03;4.18;;;;;;;9.81;41.92;102870.78;4975125;28;113365;-78
2022/04/17 06:38:55;;;;;;;5.82;3.97;;;;;;;9.93;42.17;102860.09;4973579;28;124328;-78
2022/04/17 06:41:22;;;;;;;9.63;4.32;;;;;;;10.09;41.96;102858.16;4962847;28;124033;-78
2022/04/17 06:43:50;;;;;;;6.75;4.20;;;;;;;10.23;41.80;102847.44;4977787;28;114749;-78
2022/04/17 06:46:18;;;;;;;6.40;4.45;;;;;;;10.38;42.11;102845.53;4955768;28;113960;-78
2022/04/17 06:48:45;;;;;;;6.80;4.07;;;;;;;10.54;41.90;102841.81;4966874;28;123943;-78
2022/04/17 06:51:12;;;;;;;6.22;3.95;;;;;;;10.72;42.12;102851.31;4968436;28;123822;-78
2022/04/17 06:53:39;;;;;;;6.90;4.15;;;;;;;10.89;41.92;102837.81;4968199;28;114318;-78
2022/04/17 06:56:07;;;;;;;6.18;3.83;;;;;;;11.09;41.79;102849.00;4969558;28;114011;-78
2022/04/17 06:58:34;;;;;;;7.57;3.90;;;;;;;11.29;41.89;102847.81;4972554;28;124067;-78
2022/04/17 07:01:01;;;;;;;5.82;3.38;;;;;;;11.52;41.90;102854.53;4957739;28;123974;-78
2022/04/17 07:03:28;;;;;;;4.45;3.03;;;;;;;11.75;41.81;102855.00;4957665;28;115103;-78
2022/04/17 07:05:55;;;;;;;5.55;3.28;;;;;;;11.97;41.61;102852.00;4953246;28;114724;-78
2022/04/17 07:08:22;;;;;;;4.72;2.90;;;;;;;12.19;41.04;102847.16;4951651;28;123926;-78
2022/04/17 07:10:50;;;;;;;6.20;3.15;;;;;;;12.42;40.90;102844.03;4950769;28;123536;-78
2022/04/17 07:13:19;;;;;;;5.70;2.92;;;;;;;12.63;40.82;102843.56;4951736;28;113326;-78
2022/04/17 07:15:46;;;;;;;4.97;2.83;;;;;;;12.84;40.42;102839.56;4967703;28;114809;-77
2022/04/17 07:18:14;;;;;;;5.20;3.17;;;;;;;13.05;40.50;102839.97;4968373;28;125442;-77
2022/04/17 07:20:41;;;;;;;4.82;2.58;;;;;;;13.25;40.17;102836.84;4952580;28;124057;-77
2022/04/17 07:23:08;;;;;;;7.60;2.75;;;;;;;13.46;40.01;102840.81;4984141;28;113232;-77
2022/04/17 07:25:36;;;;;;;3.15;2.47;;;;;;;13.64;39.83;102839.47;4951649;28;113312;-78
2022/04/17 07:28:04;;;;;;;5.07;2.50;;;;;;;13.85;39.42;102834.50;4954326;28;123138;-77
2022/04/17 07:30:33;;;;;;;5.07;2.60;;;;;;;14.01;39.42;102833.16;4985378;28;125013;-77
2022/04/17 07:33:02;;;;;;;4.00;2.50;;;;;;;14.19;39.04;102821.97;4953507;28;114034;-77
2022/04/17 07:35:29;;;;;;;3.80;2.50;;;;;;;14.38;38.93;102826.78;4952845;28;114500;-77
2022/04/17 07:38:02;;;;;;;5.30;2.60;;;;;;;14.52;38.57;102835.25;4951465;28;124238;-77
2022/04/17 07:40:31;;;;;;;4.07;2.20;;;;;;;14.68;38.24;102829.50;4949738;28;122552;-78
2022/04/17 07:43:00;;;;;;;3.03;2.45;;;;;;;14.84;38.09;102830.75;4951247;28;113632;-78
2022/04/17 07:45:29;;;;;;;3.78;2.28;;;;;;;14.98;37.99;102828.53;4952682;28;113703;-78
2022/04/17 07:47:57;;;;;;;3.30;2.20;;;;;;;15.16;37.94;102820.84;4951589;28;124808;-77
2022/04/17 07:50:26;;;;;;;3.08;2.38;;;;;;;15.32;37.68;102822.09;4950640;28;124217;-77
2022/04/17 07:52:54;;;;;;;3.67;2.20;;;;;;;15.49;37.48;102826.00;4952094;28;115471;-78
2022/04/17 07:55:22;;;;;;;4.00;2.20;;;;;;;15.61;37.03;102812.22;4950709;28;114375;-78
2022/04/17 07:58:01;;;;;;;3.42;2.03;;;;;;;15.72;36.93;102820.72;4968849;28;124087;-77
2022/04/17 08:00:42;;;;;;;3.88;2.85;;;;;;;15.85;36.60;102815.00;4952985;28;123477;-77
2022/04/17 08:03:21;;;;;;;3.70;1.90;;;;;;;15.97;36.48;102814.53;4971813;28;114293;-77
2022/04/17 08:05:49;;;;;;;2.83;2.30;;;;;;;16.08;36.50;102812.34;4970469;28;113984;-77
2022/04/17 08:08:17;;;;;;;3.63;2.03;;;;;;;16.19;36.52;102803.06;4969702;28;123875;-77
2022/04/17 08:10:44;;;;;;;4.88;2.15;;;;;;;16.31;36.08;102802.59;4971577;28;123179;-77
2022/04/17 08:13:11;;;;;;;3.08;1.90;;;;;;;16.39;35.87;102797.84;4975400;28;115343;-77
2022/04/17 08:15:38;;;;;;;4.13;2.13;;;;;;;16.46;35.43;102790.44;4974881;28;113538;-78
2022/04/17 08:18:06;;;;;;;3.42;2.28;;;;;;;16.50;35.06;102798.31;4970816;28;124654;-78
2022/04/17 08:20:33;;;;;;;4.68;2.20;;;;;;;16.55;35.23;102796.31;4971226;28;123349;-78
2022/04/17 08:23:00;;;;;;;5.75;2.00;;;;;;;16.60;35.12;102789.94;4971731;28;114188;-77
2022/04/17 08:25:27;;;;;;;3.85;1.98;;;;;;;16.66;34.96;102793.22;4969312;28;112327;-77
2022/04/17 08:27:55;;;;;;;3.72;1.80;;;;;;;16.75;34.82;102797.34;4971532;28;124364;-77
2022/04/17 08:30:24;;;;;;;3.50;2.17;;;;;;;16.82;34.63;102798.88;4970210;28;123743;-77
2022/04/17 08:32:52;;;;;;;3.40;2.00;;;;;;;16.90;34.87;102795.91;4970352;28;114204;-77
2022/04/17 08:35:22;;;;;;;2.92;1.90;;;;;;;17.00;34.63;102791.91;4971641;28;114197;-77
2022/04/17 08:37:50;;;;;;;3.95;2.20;;;;;;;17.13;34.54;102784.22;4970692;28;123899;-77
2022/04/17 08:40:17;;;;;;;2.42;2.05;;;;;;;17.23;34.70;102784.72;4968599;28;122799;-77
2022/04/17 08:42:45;;;;;;;2.47;2.00;;;;;;;17.34;34.43;102784.28;4971403;28;115700;-77
2022/04/17 08:45:13;;;;;;;3.35;1.98;;;;;;;17.39;34.21;102787.63;4970847;28;114524;-77
2022/04/17 08:47:42;;;;;;;3.10;2.10;;;;;;;17.44;34.18;102774.88;4970879;28;124128;-77
2022/04/17 08:50:12;;;;;;;3.63;1.98;;;;;;;17.51;34.14;102781.72;4952904;28;123373;-78
2022/04/17 08:52:41;;;;;;;3.70;2.00;;;;;;;17.57;34.00;102776.09;4971314;28;114774;-77
2022/04/17 08:55:09;;;;;;;4.65;2.08;;;;;;;17.69;34.08;102775.56;4969636;28;113736;-77
2022/04/17 08:57:36;;;;;;;3.85;2.20;;;;;;;17.79;33.56;102772.47;4952146;28;123042;-78
2022/04/17 09:00:08;;;;;;;2.40;1.90;;;;;;;17.84;33.34;102770.47;4969994;28;123365;-78
2022/04/17 09:02:40;;;;;;;3.83;2.40;;;;;;;17.85;33.45;102769.56;4967881;28;114168;-77
2022/04/17 09:05:11;;;;;;;3.38;2.10;;;;;;;17.87;33.28;102773.91;4969367;28;113985;-78
2022/04/17 09:07:49;;;;;;;5.30;2.30;;;;;;;17.92;33.31;102776.38;4969383;28;123884;-78
2022/04/17 09:10:32;;;;;;;3.00;2.20;;;;;;;17.97;33.15;102763.66;4969663;28;124051;-77
2022/04/17 09:13:01;;;;;;;2.85;2.15;;;;;;;18.02;33.34;102772.34;4969699;28;114521;-78
2022/04/17 09:15:37;;;;;;;6.00;2.10;;;;;;;18.09;33.34;102768.44;4952773;28;113764;-77
2022/04/17 09:18:08;;;;;;;4.00;2.35;;;;;;;18.21;32.88;102772.34;4969155;28;123763;-77
2022/04/17 09:20:46;;;;;;;3.88;2.47;;;;;;;18.30;33.06;102765.69;4970090;28;123759;-77
2022/04/17 09:23:13;;;;;;;3.50;2.40;;;;;;;18.37;32.87;102766.28;4970093;28;114515;-77
2022/04/17 09:25:44;;;;;;;3.05;2.13;;;;;;;18.38;32.62;102768.00;4970757;28;113087;-77
2022/04/17 09:28:11;;;;;;;4.70;2.22;;;;;;;18.39;32.48;102749.16;4970883;28;124614;-77
2022/04/17 09:30:42;;;;;;;2.85;2.30;;;;;;;18.39;32.80;102753.69;4971250;28;123824;-77
2022/04/17 09:33:12;;;;;;;3.53;2.63;;;;;;;18.39;32.52;102749.16;4971585;28;115759;-77
2022/04/17 09:35:41;;;;;;;4.25;2.70;;;;;;;18.44;32.50;102747.16;4987878;28;114110;-77
2022/04/17 09:38:09;;;;;;;3.85;2.30;;;;;;;18.47;32.52;102746.97;4982435;28;123966;-77
2022/04/17 09:40:37;;;;;;;3.25;2.42;;;;;;;18.51;32.54;102741.47;4976367;28;124027;-77
2022/04/17 09:43:12;;;;;;;3.28;2.40;;;;;;;18.57;32.46;102735.81;5000521;28;114822;-78
2022/04/17 09:46:08;;;;;;;3.92;2.28;;;;;;;18.67;32.89;102737.13;4998588;28;114350;-78
2022/04/17 09:48:36;;;;;;;;;;;;;;;18.73;33.29;102726.06;4989903;28;123623;-78
2022/04/17 09:51:23;;;;;;;2.70;2.17;;;;;;;18.81;32.60;102718.53;4970585;28;124921;-78
2022/04/17 09:54:04;;;;;;;3.08;2.13;;;;;;;18.86;32.47;102721.00;4974590;28;114796;-78
2022/04/17 09:56:34;;;;;;;3.88;2.10;;;;;;;18.95;32.21;102719.66;4985070;28;113858;-76
2022/04/17 09:59:16;;;;;;;4.03;2.20;;;;;;;19.04;32.01;102713.81;4968441;28;122328;-77
2022/04/17 10:01:46;;;;;;;2.90;2.20;;;;;;;19.13;31.90;102702.59;4963435;28;123292;-77
2022/04/17 10:04:16;;;;;;;3.45;2.10;;;;;;;19.22;32.12;102696.75;4948294;28;112242;-78
2022/04/17 10:06:44;;;;;;;2.83;2.10;;;;;;;19.32;31.94;102697.13;4965254;28;114032;-78
2022/04/17 10:09:12;;;;;;;2.67;2.03;;;;;;;19.45;31.65;102689.31;4954699;28;124599;-78
2022/04/17 10:11:40;;;;;;;2.72;2.10;;;;;;;19.54;31.42;102686.13;4953747;28;124721;-78
2022/04/17 10:14:08;;;;;;;2.88;2.28;;;;;;;19.58;31.31;102687.69;4955026;28;114130;-78
2022/04/17 10:16:41;;;;;;;3.55;2.45;;;;;;;19.64;31.09;102671.22;4969520;28;114516;-78
2022/04/17 10:19:17;;;;;;;4.20;2.10;;;;;;;19.69;30.63;102670.13;4948848;28;124027;-78
2022/04/17 10:21:46;;;;;;;2.78;2.20;;;;;;;19.71;30.56;102676.28;4953818;28;124225;-77
2022/04/17 10:24:18;;;;;;;4.65;2.22;;;;;;;19.76;30.63;102674.22;4955065;28;115534;-78
2022/04/17 10:26:49;;;;;;;3.33;1.98;;;;;;;19.84;30.80;102663.94;4952106;28;114776;-78
2022/04/17 10:29:32;;;;;;;3.20;2.25;;;;;;;19.93;30.70;102660.75;4968015;28;123839;-78
2022/04/17 10:32:23;;;;;;;4.10;2.30;;;;;;;20.02;30.50;102660.22;4961616;28;123542;-78
2022/04/17 10:35:26;;;;;;;2.47;2.00;;;;;;;20.07;30.65;102661.78;4951412;28;114673;-77
2022/04/17 10:38:13;;;;;;;3.00;1.80;;;;;;;20.12;30.34;102654.34;4948360;28;113154;-77
2022/04/17 10:40:50;;;;;;;4.80;2.40;;;;;;;20.18;30.17;102653.97;4950368;28;121944;-78
2022/04/17 10:43:17;;;;;;;4.25;2.40;;;;;;;20.21;30.21;102645.72;4951117;28;122789;-78
2022/04/17 10:46:07;;;;;;;2.38;1.88;;;;;;;20.23;30.17;102641.13;4960944;28;113410;-77
2022/04/17 10:49:05;;;;;;;4.00;2.20;;;;;;;20.30;30.00;102641.63;4954301;28;113828;-78
2022/04/17 10:51:35;;;;;;;2.53;1.88;;;;;;;20.36;29.99;102636.78;4952175;28;123804;-77
2022/04/17 10:54:10;;;;;;;3.70;1.80;;;;;;;20.44;29.57;102633.63;4952646;28;124791;-78
2022/04/17 10:56:39;;;;;;;3.80;1.70;;;;;;;20.43;29.24;102616.59;4938729;28;113268;-77
2022/04/17 10:59:20;;;;;;;2.63;2.03;;;;;;;20.42;28.85;102625.66;4951590;28;114104;-77
2022/04/17 11:01:59;;;;;;;2.40;1.70;;;;;;;20.49;29.06;102619.91;4952246;28;123777;-77
2022/04/17 11:04:40;;;;;;;3.15;2.08;;;;;;;20.60;29.52;102612.09;4951235;28;124165;-78
2022/04/17 11:07:07;;;;;;;4.72;1.75;;;;;;;20.72;29.04;102616.75;4956699;28;114167;-78
2022/04/17 11:09:41;;;;;;;2.58;1.50;;;;;;;20.78;28.35;102616.38;4950598;28;114445;-77
2022/04/17 11:12:17;;;;;;;2.90;1.88;;;;;;;20.78;28.46;102611.00;4956492;28;124145;-78
2022/04/17 11:15:15;;;;;;;4.20;1.88;;;;;;;20.82;28.18;102616.22;4973450;28;122499;-77
2022/04/17 11:17:42;;;;;;;2.38;1.73;;;;;;;20.87;28.36;102603.31;4957067;28;115146;-76
2022/04/17 11:20:10;;;;;;;4.03;1.95;;;;;;;20.96;28.51;102605.44;4952851;28;114943;-78
2022/04/17 11:22:38;;;;;;;4.00;2.20;;;;;;;21.02;28.39;102597.00;4960298;28;123911;-78
2022/04/17 11:25:08;;;;;;;2.83;1.90;;;;;;;21.06;27.99;102593.16;4947705;28;123542;-78
2022/04/17 11:27:45;;;;;;;3.65;2.00;;;;;;;21.08;27.72;102585.84;4959425;28;114030;-78
2022/04/17 11:30:34;;;;;;;3.13;1.70;;;;;;;21.02;27.90;102580.84;4959372;28;113747;-76
2022/04/17 11:33:02;;;;;;;2.78;1.80;;;;;;;20.99;27.92;102578.34;4962875;28;123886;-77
2022/04/17 11:35:30;;;;;;;3.35;2.13;;;;;;;20.97;27.89;102577.56;4964079;28;123330;-77
2022/04/17 11:38:01;;;;;;;4.55;2.10;;;;;;;21.01;27.76;102579.09;4959775;28;114215;-78
2022/04/17 11:40:31;;;;;;;2.85;1.95;;;;;;;21.03;28.33;102569.09;4955063;28;114010;-77
2022/04/17 11:43:05;;;;;;;3.78;2.28;;;;;;;21.11;28.46;102566.78;4952883;28;124077;-77